Time;durP1;ratioP1;P1;durP2;ratioP2;P2;SDS_P1;SDS_P2;PMS_P1;PMS_P2;Temp;Humidity;BMP_temperature;BMP_pressure;BME280_temperature;BME280_humidity;BME280_pressure;Samples;Min_cycle;Max_cycle;Signal;HPM_P1;HPM_P2
2023/03/15 00:00:09;;;;;;;;;15.50;14.00;;;;;14.63;49.68;97359.13;6266323;27;97510;-60
2023/03/15 00:03:14;;;;;;;;;15.40;15.40;;;;;14.48;50.12;97362.78;6272051;27;97031;-62
2023/03/15 00:06:17;;;;;;;;;12.40;12.00;;;;;14.42;50.05;97363.09;6279089;27;98416;-60
2023/03/15 00:09:23;;;;;;;;;12.00;11.00;;;;;14.39;49.90;97379.94;6300943;27;98436;-61
2023/03/15 00:12:26;;;;;;;;;10.60;10.00;;;;;14.34;49.71;97388.88;6280351;27;96519;-61
2023/03/15 00:15:29;;;;;;;;;13.00;12.00;;;;;14.45;49.08;97409.44;6267245;27;96723;-60
2023/03/15 00:18:34;;;;;;;;;8.80;8.80;;;;;14.32;49.28;97416.28;6260297;27;96916;-61
2023/03/15 00:21:39;;;;;;;;;6.20;6.20;;;;;14.35;49.22;97447.44;6271326;27;99463;-60
2023/03/15 00:24:43;;;;;;;;;7.67;7.00;;;;;14.21;48.31;97460.81;6270408;27;97524;-60
2023/03/15 00:27:46;;;;;;;;;8.00;7.00;;;;;13.91;48.95;97457.44;6252725;27;96535;-60
2023/03/15 00:30:50;;;;;;;;;8.80;8.80;;;;;13.72;49.40;97473.50;6240574;27;96663;-60
2023/03/15 00:33:55;;;;;;;;;9.00;9.00;;;;;13.62;49.40;97501.41;6255520;27;96607;-62
2023/03/15 00:36:58;;;;;;;;;9.00;9.00;;;;;13.53;49.56;97513.06;6224650;27;98363;-61
2023/03/15 00:40:03;;;;;;;;;11.00;11.00;;;;;13.16;50.53;97533.13;6292316;27;97124;-61
2023/03/15 00:43:09;;;;;;;;;10.40;10.40;;;;;13.01;50.58;97535.81;6223491;27;96650;-61
2023/03/15 00:46:13;;;;;;;;;10.00;9.00;;;;;12.77;51.07;97545.50;6271282;27;99545;-63
2023/03/15 00:49:18;;;;;;;;;16.00;15.00;;;;;12.53;51.50;97556.81;6237462;27;96704;-60
2023/03/15 00:52:22;;;;;;;;;17.00;16.00;;;;;12.14;52.69;97566.41;6268748;27;96534;-60
2023/03/15 00:55:25;;;;;;;;;13.60;12.60;;;;;12.03;52.77;97570.13;6229584;27;96890;-61
2023/03/15 00:58:29;;;;;;;;;17.40;15.40;;;;;11.96;52.90;97575.78;6270013;27;96445;-62
2023/03/15 01:01:32;;;;;;;;;12.00;11.00;;;;;11.81;52.54;97613.50;6244891;27;96520;-61
2023/03/15 01:04:37;;;;;;;;;11.20;11.20;;;;;11.53;52.60;97611.13;6245721;27;96621;-59
2023/03/15 01:07:41;;;;;;;;;11.00;11.00;;;;;11.47;52.76;97623.75;6289748;27;96746;-60
2023/03/15 01:10:45;;;;;;;;;12.50;12.00;;;;;11.48;52.64;97633.50;6236251;27;96635;-61
2023/03/15 01:13:48;;;;;;;;;10.50;10.50;;;;;11.36;52.71;97646.31;6216490;27;97591;-61
2023/03/15 01:16:52;;;;;;;;;13.00;12.00;;;;;11.25;52.76;97652.69;6287532;27;96385;-61
2023/03/15 01:19:56;;;;;;;;;11.50;11.50;;;;;11.18;52.80;97657.50;6263615;27;96390;-61
2023/03/15 01:23:00;;;;;;;;;12.00;11.00;;;;;10.98;52.81;97668.09;6310950;27;96260;-61
2023/03/15 01:26:05;;;;;;;;;15.00;14.00;;;;;10.96;52.92;97668.31;6278660;27;98475;-61
2023/03/15 01:29:08;;;;;;;;;12.50;12.00;;;;;10.72;53.07;97673.19;6274253;27;96803;-61
2023/03/15 01:32:12;;;;;;;;;13.50;12.00;;;;;10.73;53.26;97684.78;6275808;27;96357;-61
2023/03/15 01:35:17;;;;;;;;;11.80;11.00;;;;;10.68;53.25;97693.63;6243145;27;96551;-61
2023/03/15 01:38:21;;;;;;;;;10.00;9.40;;;;;10.49;53.47;97707.66;6268128;27;96257;-61
2023/03/15 01:41:26;;;;;;;;;11.00;10.00;;;;;10.50;52.93;97723.59;6241938;27;98382;-62
2023/03/15 01:44:54;;;;;;;;;8.00;7.00;;;;;10.46;52.50;97735.91;6259850;27;96903;-61
2023/03/15 01:47:57;;;;;;;;;9.40;9.40;;;;;10.43;52.28;97747.19;6194251;27;96488;-61
2023/03/15 01:51:08;;;;;;;;;8.00;8.00;;;;;10.48;51.66;97754.53;6216808;27;96830;-62
2023/03/15 01:54:18;;;;;;;;;6.00;6.00;;;;;10.53;51.38;97762.69;6235486;27;96942;-61
2023/03/15 01:57:27;;;;;;;;;8.80;8.80;;;;;10.51;50.41;97754.03;6286139;27;98050;-61
2023/03/15 02:00:30;;;;;;;;;6.00;6.00;;;;;10.37;50.07;97753.56;6250444;27;96513;-61
2023/03/15 02:03:46;;;;;;;;;9.00;8.50;;;;;10.32;50.10;97759.69;6230686;27;98500;-62
2023/03/15 02:07:00;;;;;;;;;4.00;4.00;;;;;10.24;50.03;97756.63;6255066;27;96343;-61
2023/03/15 02:10:10;;;;;;;;;5.60;5.60;;;;;10.15;50.23;97780.44;6261691;27;96327;-61
2023/03/15 02:13:21;;;;;;;;;7.80;7.80;;;;;10.14;50.16;97797.63;6229422;27;96647;-62
2023/03/15 02:16:25;;;;;;;;;4.40;4.40;;;;;10.02;49.51;97807.66;6257376;27;96454;-62
2023/03/15 02:19:45;;;;;;;;;6.00;6.00;;;;;9.93;48.78;97809.94;6273898;27;96597;-61
2023/03/15 02:22:55;;;;;;;;;4.00;4.00;;;;;9.76;47.84;97817.19;6254651;27;96236;-61
2023/03/15 02:26:07;;;;;;;;;3.00;3.00;;;;;9.66;47.95;97814.31;6281886;27;96117;-61
2023/03/15 02:29:12;;;;;;;;;4.00;4.00;;;;;9.77;47.82;97813.47;6251326;27;96529;-61
2023/03/15 02:32:16;;;;;;;;;4.00;4.00;;;;;9.82;47.50;97820.81;6198881;27;96269;-60
2023/03/15 02:35:24;;;;;;;;;4.00;4.00;;;;;9.90;47.46;97821.22;6273924;27;97149;-60
2023/03/15 02:38:28;;;;;;;;;5.20;5.20;;;;;9.79;48.75;97819.41;6272620;27;96349;-61
2023/03/15 02:41:36;;;;;;;;;5.00;5.00;;;;;9.73;49.25;97819.53;6283016;27;96397;-61
2023/03/15 02:44:44;;;;;;;;;6.00;6.00;;;;;9.61;49.44;97816.94;6233927;27;96379;-61
2023/03/15 02:47:49;;;;;;;;;6.00;6.00;;;;;9.43;49.10;97812.53;6299941;27;96431;-61
2023/03/15 02:50:52;;;;;;;;;6.00;6.00;;;;;9.31;49.71;97845.94;6267678;27;96652;-61
2023/03/15 02:53:56;;;;;;;;;6.20;6.00;;;;;9.18;50.08;97841.66;6308734;27;96410;-60
2023/03/15 02:57:01;;;;;;;;;6.00;6.00;;;;;9.16;50.52;97859.06;6220246;27;96613;-61
2023/03/15 03:00:13;;;;;;;;;6.00;6.00;;;;;9.17;50.73;97869.59;6260223;27;96401;-60
2023/03/15 03:03:18;;;;;;;;;4.80;4.20;;;;;9.16;50.46;97870.63;6246240;27;96333;-60
2023/03/15 03:06:21;;;;;;;;;5.00;4.00;;;;;9.20;50.68;97879.03;6312475;27;97021;-60
2023/03/15 03:09:25;;;;;;;;;7.00;6.60;;;;;9.13;50.85;97889.94;6242751;27;96450;-60
2023/03/15 03:12:29;;;;;;;;;8.00;8.00;;;;;9.01;51.18;97900.72;6264020;27;96423;-61
2023/03/15 03:15:33;;;;;;;;;7.00;6.00;;;;;9.13;51.17;97917.66;6271189;27;96716;-60
2023/03/15 03:18:37;;;;;;;;;6.00;6.00;;;;;9.33;50.96;97916.44;6277932;27;96332;-68
2023/03/15 03:21:42;;;;;;;;;6.50;6.50;;;;;9.37;50.56;97909.53;6231138;27;96783;-67
2023/03/15 03:24:47;;;;;;;;;5.40;5.40;;;;;9.35;50.99;97901.69;6253299;27;96560;-68
2023/03/15 03:27:55;;;;;;;;;6.00;6.00;;;;;9.34;50.81;97901.94;6262785;27;96767;-68
2023/03/15 03:31:02;;;;;;;;;7.00;6.00;;;;;9.31;50.86;97914.00;6237786;27;97063;-68
2023/03/15 03:34:08;;;;;;;;;6.00;6.00;;;;;9.12;50.86;97912.50;6241182;27;99129;-69
2023/03/15 03:37:11;;;;;;;;;8.00;8.00;;;;;9.12;51.00;97915.19;6198498;27;96196;-69
2023/03/15 03:40:33;;;;;;;;;9.00;8.00;;;;;9.15;50.59;97912.03;6273019;27;96244;-69
2023/03/15 03:43:38;;;;;;;;;5.40;5.40;;;;;9.09;50.69;97921.84;6272651;27;96238;-68
2023/03/15 03:46:43;;;;;;;;;8.40;8.40;;;;;9.16;50.30;97918.22;6311386;27;98044;-68
2023/03/15 03:49:48;;;;;;;;;6.60;6.60;;;;;9.09;50.33;97921.84;6290517;27;96469;-69
2023/03/15 03:52:52;;;;;;;;;10.33;9.00;;;;;9.19;49.79;97920.44;6250269;27;96335;-68
2023/03/15 03:56:05;;;;;;;;;10.00;10.00;;;;;9.36;49.17;97938.31;6248899;27;96641;-69
2023/03/15 03:59:10;;;;;;;;;10.00;9.00;;;;;9.36;48.76;97926.72;6233411;27;98445;-69
2023/03/15 04:02:27;;;;;;;;;10.50;10.00;;;;;9.40;48.65;97935.94;6316827;27;96892;-69
2023/03/15 04:05:35;;;;;;;;;10.00;10.00;;;;;9.36;48.27;97937.47;6238632;27;97115;-68
2023/03/15 04:08:39;;;;;;;;;8.00;8.00;;;;;9.31;48.36;97956.19;6302081;27;96639;-69
2023/03/15 04:11:46;;;;;;;;;9.25;9.00;;;;;9.42;48.10;97953.50;6245520;27;97149;-69
2023/03/15 04:14:51;;;;;;;;;8.00;6.00;;;;;9.47;48.07;97958.16;6247665;27;96505;-68
2023/03/15 04:17:58;;;;;;;;;8.75;8.75;;;;;9.44;48.26;97967.53;6295548;27;96895;-69
2023/03/15 04:21:09;;;;;;;;;8.00;7.80;;;;;9.49;48.16;97959.56;6224875;27;96688;-69
2023/03/15 04:24:16;;;;;;;;;6.40;6.00;;;;;9.57;47.90;97961.91;6267599;27;96620;-69
2023/03/15 04:27:33;;;;;;;;;10.00;10.00;;;;;9.57;47.97;97969.16;6269988;27;97032;-68
2023/03/15 04:30:45;;;;;;;;;9.60;9.20;;;;;9.57;47.72;97956.50;6270546;27;96372;-68
2023/03/15 04:34:15;;;;;;;;;7.40;6.60;;;;;9.63;47.78;97976.25;6293230;27;98650;-69
2023/03/15 04:37:41;;;;;;;;;11.40;10.00;;;;;9.59;47.60;97975.09;6289941;27;98655;-69
2023/03/15 04:41:09;;;;;;;;;11.40;11.40;;;;;9.58;47.20;97976.13;6244043;27;97420;-68
2023/03/15 04:44:31;;;;;;;;;10.00;9.00;;;;;9.59;47.02;97980.47;6258758;27;96374;-69
2023/03/15 04:47:53;;;;;;;;;9.00;9.00;;;;;9.63;46.86;97996.97;6189642;27;98338;-69
2023/03/15 04:51:07;;;;;;;;;7.75;7.25;;;;;9.47;46.71;97985.91;6230604;27;97016;-69
2023/03/15 04:54:10;;;;;;;;;7.00;7.00;;;;;9.45;46.56;98006.00;6272079;27;98953;-69
2023/03/15 04:57:40;;;;;;;;;8.60;8.00;;;;;9.34;46.05;98001.44;6287103;27;96945;-69
2023/03/15 05:01:02;;;;;;;;;8.00;8.00;;;;;9.25;46.42;97997.47;6201326;28;96413;-69
2023/03/15 05:04:09;;;;;;;;;10.00;9.00;;;;;9.32;45.85;98001.69;6255272;27;98445;-69
2023/03/15 05:07:40;;;;;;;;;7.20;6.80;;;;;9.41;45.17;98010.22;6213091;27;97470;-68
2023/03/15 05:11:13;;;;;;;;;8.00;8.00;;;;;9.47;45.12;98012.81;6198511;27;96484;-69
2023/03/15 05:14:36;;;;;;;;;8.00;7.40;;;;;9.45;45.38;98031.03;6260832;27;96789;-68
2023/03/15 05:18:04;;;;;;;;;7.00;7.00;;;;;9.37;44.96;98007.19;6273427;27;96624;-68
2023/03/15 05:21:14;;;;;;;;;7.00;6.00;;;;;9.47;45.63;98034.31;6269274;27;96616;-69
2023/03/15 05:24:37;;;;;;;;;8.60;8.00;;;;;9.46;45.40;98037.25;6280834;27;97033;-68
2023/03/15 05:27:56;;;;;;;;;7.60;7.40;;;;;9.49;45.24;98044.81;6280285;27;96937;-69
2023/03/15 05:31:16;;;;;;;;;9.40;8.40;;;;;9.62;44.88;98057.22;6253968;27;96642;-69
2023/03/15 05:34:39;;;;;;;;;8.00;8.00;;;;;9.67;44.36;98057.34;6272089;27;96675;-68
2023/03/15 05:38:15;;;;;;;;;7.00;6.00;;;;;9.62;43.73;98063.44;6225028;27;96689;-69
2023/03/15 05:41:37;;;;;;;;;6.25;5.25;;;;;9.59;43.43;98071.97;6278549;27;96363;-67
2023/03/15 05:45:02;;;;;;;;;8.50;8.00;;;;;9.73;43.45;98081.44;6250904;27;96637;-69
2023/03/15 05:48:24;;;;;;;;;8.00;7.00;;;;;9.69;43.28;98087.50;6275121;27;96655;-69
2023/03/15 05:51:44;;;;;;;;;9.00;8.00;;;;;9.75;43.23;98086.59;6254315;27;98514;-68
2023/03/15 05:54:54;;;;;;;;;6.40;6.40;;;;;9.72;42.70;98095.13;6274779;27;96333;-68
2023/03/15 05:58:22;;;;;;;;;6.60;6.00;;;;;9.80;42.60;98097.47;6199305;27;96383;-68
2023/03/15 06:01:48;;;;;;;;;5.00;4.00;;;;;9.95;42.55;98103.19;6220586;27;100699;-68
2023/03/15 06:05:00;;;;;;;;;6.00;6.00;;;;;9.95;42.31;98119.34;6249613;27;97145;-69
2023/03/15 06:08:05;;;;;;;;;5.00;4.00;;;;;9.98;42.33;98114.28;6267751;27;96303;-70
2023/03/15 06:11:12;;;;;;;;;4.50;4.00;;;;;10.03;42.28;98118.97;6264721;27;96723;-64
2023/03/15 06:14:17;;;;;;;;;4.80;3.80;;;;;10.14;42.08;98131.59;6261112;27;97157;-69
2023/03/15 06:17:31;;;;;;;;;5.40;5.40;;;;;10.18;41.52;98131.97;6265773;27;96286;-68
2023/03/15 06:20:36;;;;;;;;;4.60;4.00;;;;;10.17;41.65;98141.91;6271972;27;96299;-69
2023/03/15 06:23:45;;;;;;;;;5.00;5.00;;;;;10.23;41.28;98148.22;6303551;27;96925;-69
2023/03/15 06:26:48;;;;;;;;;5.00;5.00;;;;;10.32;41.54;98158.41;6216735;27;96344;-68
2023/03/15 06:29:54;;;;;;;;;4.60;4.00;;;;;10.26;40.95;98163.94;6292557;27;96687;-69
2023/03/15 06:32:59;;;;;;;;;3.60;3.60;;;;;10.07;41.36;98148.94;6260813;27;96563;-68
2023/03/15 06:36:06;;;;;;;;;7.00;6.00;;;;;10.24;41.16;98171.44;6275228;27;97039;-69
2023/03/15 06:39:11;;;;;;;;;6.00;5.40;;;;;10.15;41.18;98162.03;6252563;27;99118;-69
2023/03/15 06:42:15;;;;;;;;;8.00;8.00;;;;;10.31;41.35;98177.53;6190813;27;98376;-67
2023/03/15 06:45:21;;;;;;;;;6.20;6.00;;;;;10.24;42.19;98183.03;6221086;27;98533;-68
2023/03/15 06:48:25;;;;;;;;;6.75;5.00;;;;;10.31;42.74;98183.69;6266215;27;96492;-68
2023/03/15 06:51:28;;;;;;;;;7.00;7.00;;;;;10.24;43.18;98183.03;6282709;27;96538;-69
2023/03/15 06:54:31;;;;;;;;;7.60;7.00;;;;;10.19;43.45;98174.00;6260167;27;96353;-69
2023/03/15 06:57:35;;;;;;;;;7.00;7.00;;;;;10.27;43.62;98192.50;6293524;27;96474;-68
2023/03/15 07:00:40;;;;;;;;;5.75;5.75;;;;;10.24;42.83;98201.06;6270265;27;96530;-68
2023/03/15 07:03:43;;;;;;;;;6.40;6.00;;;;;10.34;42.83;98196.72;6194641;27;96601;-71
2023/03/15 07:06:47;;;;;;;;;8.20;8.00;;;;;10.43;43.15;98210.63;6207275;27;97009;-71
2023/03/15 07:09:50;;;;;;;;;6.00;5.00;;;;;10.46;41.85;98207.44;6222116;27;96286;-70
2023/03/15 07:12:55;;;;;;;;;7.00;6.80;;;;;10.35;41.25;98203.75;6253765;27;96902;-71
2023/03/15 07:16:00;;;;;;;;;8.00;7.00;;;;;10.36;41.23;98208.06;6249456;27;98843;-72
2023/03/15 07:19:03;;;;;;;;;6.75;6.75;;;;;10.33;41.19;98203.16;6243823;27;96236;-71
2023/03/15 07:22:07;;;;;;;;;7.80;6.80;;;;;10.35;41.50;98201.06;6257378;27;98377;-71
2023/03/15 07:25:10;;;;;;;;;7.40;6.40;;;;;10.40;41.73;98214.63;6238270;27;96366;-70
2023/03/15 07:28:14;;;;;;;;;9.80;9.80;;;;;10.39;42.30;98217.56;6270263;27;96358;-68
2023/03/15 07:31:18;;;;;;;;;6.00;6.00;;;;;10.33;42.44;98216.63;6250641;27;98721;-71
2023/03/15 07:34:23;;;;;;;;;8.00;7.00;;;;;10.39;41.96;98214.88;6223681;27;96951;-67
2023/03/15 07:37:27;;;;;;;;;8.60;8.60;;;;;10.53;41.81;98229.72;6210753;27;96661;-67
2023/03/15 07:40:31;;;;;;;;;6.00;6.00;;;;;10.61;41.06;98236.59;6201739;27;96543;-70
2023/03/15 07:43:34;;;;;;;;;7.80;7.00;;;;;10.63;39.83;98232.63;6270083;27;96275;-70
2023/03/15 07:46:51;;;;;;;;;7.75;7.75;;;;;10.81;39.92;98234.34;6247586;27;96665;-68
2023/03/15 07:49:55;;;;;;;;;4.25;3.75;;;;;10.83;39.86;98235.75;6265746;27;99096;-70
2023/03/15 07:52:59;;;;;;;;;7.00;7.00;;;;;11.00;39.74;98238.50;6256897;27;96685;-71
2023/03/15 07:56:02;;;;;;;;;7.00;7.00;;;;;11.12;39.17;98241.97;6254174;27;96442;-70
2023/03/15 07:59:05;;;;;;;;;10.00;9.00;;;;;11.26;39.17;98251.41;6242399;27;99043;-69
2023/03/15 08:02:12;;;;;;;;;8.25;7.25;;;;;11.39;38.16;98266.47;6315156;27;96625;-69
2023/03/15 08:05:18;;;;;;;;;7.40;7.40;;;;;11.30;37.73;98266.06;6252652;27;96344;-71
2023/03/15 08:08:21;;;;;;;;;7.60;6.60;;;;;11.32;37.78;98270.41;6283623;27;96738;-68
2023/03/15 08:11:24;;;;;;;;;8.40;7.00;;;;;11.34;37.93;98271.00;6261781;27;98338;-69
2023/03/15 08:14:28;;;;;;;;;6.00;6.00;;;;;11.29;38.18;98271.69;6270472;27;98486;-69
2023/03/15 08:18:00;;;;;;;;;8.00;8.00;;;;;11.28;38.05;98279.00;6241331;27;96920;-69
2023/03/15 08:21:05;;;;;;;;;6.40;5.80;;;;;11.23;38.52;98284.28;6276906;27;98467;-67
2023/03/15 08:24:08;;;;;;;;;7.40;7.40;;;;;11.26;38.29;98281.09;6274832;27;96671;-69
2023/03/15 08:27:12;;;;;;;;;7.60;7.00;;;;;11.34;38.06;98282.56;6253308;27;96524;-69
2023/03/15 08:30:16;;;;;;;;;7.00;7.00;;;;;11.21;37.89;98283.69;6259613;27;97522;-69
2023/03/15 08:33:22;;;;;;;;;7.00;7.00;;;;;11.25;37.74;98275.94;6310624;27;96330;-69
2023/03/15 08:36:25;;;;;;;;;5.60;5.60;;;;;11.28;36.89;98280.88;6304823;27;96817;-70
2023/03/15 08:39:28;;;;;;;;;7.00;6.40;;;;;11.27;37.40;98282.75;6217141;27;98339;-69
2023/03/15 08:42:32;;;;;;;;;9.00;8.00;;;;;11.26;37.85;98285.66;6264284;27;97464;-67
2023/03/15 08:45:35;;;;;;;;;8.00;8.00;;;;;11.43;37.58;98293.81;6250542;27;96409;-69
2023/03/15 08:49:02;;;;;;;;;8.00;8.00;;;;;11.56;37.46;98288.13;6270265;27;96613;-69
2023/03/15 08:52:05;;;;;;;;;7.00;7.00;;;;;11.66;36.78;98291.00;6243612;27;98961;-69
2023/03/15 08:55:13;;;;;;;;;6.20;6.20;;;;;11.77;37.02;98289.34;6215334;27;96743;-69
2023/03/15 08:58:16;;;;;;;;;8.00;7.40;;;;;11.75;36.74;98294.16;6253313;27;96643;-69
2023/03/15 09:01:19;;;;;;;;;11.75;11.00;;;;;11.82;36.31;98297.53;6232002;27;98345;-67
2023/03/15 09:04:24;;;;;;;;;5.20;5.20;;;;;12.08;36.17;98302.28;6228316;27;96879;-69
2023/03/15 09:07:28;;;;;;;;;9.00;8.00;;;;;12.34;36.32;98308.91;6227031;27;97150;-69
2023/03/15 09:10:33;;;;;;;;;10.80;8.80;;;;;12.50;35.69;98305.38;6255339;27;96433;-69
2023/03/15 09:13:36;;;;;;;;;11.60;10.00;;;;;12.64;35.76;98317.47;6230727;27;97489;-70
2023/03/15 09:16:39;;;;;;;;;8.80;8.00;;;;;12.55;34.73;98324.38;6232899;27;96884;-69
2023/03/15 09:19:44;;;;;;;;;7.80;6.80;;;;;12.62;34.90;98326.91;6273307;27;98741;-70
2023/03/15 09:22:51;;;;;;;;;8.60;6.60;;;;;12.31;35.93;98334.56;6255485;27;97602;-70
2023/03/15 09:25:54;;;;;;;;;8.40;8.00;;;;;12.16;35.65;98331.63;6269169;27;98333;-69
2023/03/15 09:28:57;;;;;;;;;9.00;8.00;;;;;11.93;35.77;98332.56;6229707;27;96751;-69
2023/03/15 09:32:01;;;;;;;;;8.00;7.00;;;;;11.88;35.38;98335.16;6247726;27;96607;-70
2023/03/15 09:35:10;;;;;;;;;9.20;9.00;;;;;12.05;35.56;98335.19;6214095;27;96362;-69
2023/03/15 09:38:13;;;;;;;;;9.00;8.40;;;;;11.98;35.32;98343.44;6266189;27;96453;-69
2023/03/15 09:41:24;;;;;;;;;7.00;7.00;;;;;12.02;35.20;98339.19;6204139;27;97159;-70
2023/03/15 09:44:46;;;;;;;;;8.60;7.00;;;;;12.04;35.08;98336.25;6206149;27;96593;-69
2023/03/15 09:47:59;;;;;;;;;7.50;7.00;;;;;11.91;35.06;98336.56;6291008;27;97706;-68
2023/03/15 09:51:08;;;;;;;;;8.60;7.60;;;;;12.01;35.54;98339.47;6240955;27;97811;-69
2023/03/15 09:54:15;;;;;;;;;8.00;8.00;;;;;11.89;35.02;98336.00;6252436;27;96923;-67
2023/03/15 09:57:30;;;;;;;;;7.40;7.40;;;;;11.86;34.88;98350.81;6211536;27;97520;-69
2023/03/15 10:00:40;;;;;;;;;8.40;8.40;;;;;11.62;34.45;98333.88;6204784;27;96537;-69
2023/03/15 10:03:49;;;;;;;;;5.00;5.00;;;;;11.66;33.66;98350.41;6292005;27;96898;-68
2023/03/15 10:06:56;;;;;;;;;6.60;6.00;;;;;11.83;33.80;98356.69;6239715;27;98892;-68
2023/03/15 10:10:02;;;;;;;;;5.00;5.00;;;;;12.01;33.97;98361.91;6313527;27;96706;-69
2023/03/15 10:13:18;;;;;;;;;4.75;4.00;;;;;12.08;33.79;98361.72;6240261;27;97546;-68
2023/03/15 10:16:32;;;;;;;;;4.60;4.60;;;;;12.15;33.95;98365.09;6301805;27;96498;-69
2023/03/15 10:19:46;;;;;;;;;8.00;7.50;;;;;12.05;34.12;98368.44;6280631;27;96841;-70
2023/03/15 10:22:58;;;;;;;;;6.00;6.00;;;;;12.02;34.47;98365.41;6251232;27;96907;-69
2023/03/15 10:26:04;;;;;;;;;5.40;5.40;;;;;12.09;34.25;98371.47;6263661;27;97677;-70
2023/03/15 10:29:14;;;;;;;;;6.00;6.00;;;;;12.17;34.45;98376.47;6260588;27;96503;-70
2023/03/15 10:32:22;;;;;;;;;7.00;6.00;;;;;12.31;33.38;98382.41;6241612;27;96747;-69
2023/03/15 10:35:26;;;;;;;;;6.20;6.00;;;;;12.36;33.71;98382.47;6217956;27;98393;-69
2023/03/15 10:38:31;;;;;;;;;8.00;6.60;;;;;12.30;33.58;98383.44;6272009;27;96362;-70
2023/03/15 10:41:38;;;;;;;;;6.00;5.00;;;;;12.20;33.11;98377.88;6257630;27;98251;-69
2023/03/15 10:44:42;;;;;;;;;5.00;4.00;;;;;12.39;32.30;98390.91;6204664;27;97511;-69
2023/03/15 10:47:47;;;;;;;;;5.00;5.00;;;;;12.33;32.32;98385.66;6219693;27;99629;-70
2023/03/15 10:51:06;;;;;;;;;3.00;3.00;;;;;12.54;32.26;98382.22;6194786;27;96622;-70
2023/03/15 10:54:16;;;;;;;;;5.00;4.00;;;;;12.65;31.66;98383.22;6259193;27;96679;-70
2023/03/15 10:57:25;;;;;;;;;7.40;7.00;;;;;12.75;31.95;98383.38;6252712;27;96638;-70
2023/03/15 11:00:31;;;;;;;;;5.00;5.00;;;;;12.74;31.99;98392.53;6263591;27;97351;-70
2023/03/15 11:03:36;;;;;;;;;4.60;4.00;;;;;12.65;31.91;98388.63;6246492;27;96255;-70
2023/03/15 11:06:43;;;;;;;;;4.60;4.00;;;;;12.63;30.73;98388.84;6271098;27;96640;-69
2023/03/15 11:09:52;;;;;;;;;4.75;4.00;;;;;12.45;30.83;98391.81;6296380;27;96306;-69
2023/03/15 11:13:10;;;;;;;;;5.50;5.00;;;;;12.48;31.17;98396.72;6218728;27;96926;-70
2023/03/15 11:16:20;;;;;;;;;4.60;4.00;;;;;12.46;31.27;98383.44;6245033;27;96219;-68
2023/03/15 11:19:27;;;;;;;;;4.40;4.00;;;;;12.47;31.56;98385.09;6279614;27;97245;-67
2023/03/15 11:22:32;;;;;;;;;4.00;4.00;;;;;12.68;32.08;98388.94;6262743;27;97046;-70
2023/03/15 11:25:38;;;;;;;;;4.40;4.00;;;;;12.75;31.05;98383.38;6249578;27;96398;-69
2023/03/15 11:28:48;;;;;;;;;6.50;6.00;;;;;12.90;31.02;98370.84;6255055;27;96565;-70
2023/03/15 11:31:53;;;;;;;;;5.00;5.00;;;;;13.14;31.32;98395.88;6232635;27;96961;-70
2023/03/15 11:35:02;;;;;;;;;3.60;3.60;;;;;13.14;30.52;98371.50;6258934;27;96291;-69
2023/03/15 11:38:13;;;;;;;;;4.00;4.00;;;;;13.21;30.63;98390.25;6236524;27;96256;-68
2023/03/15 11:41:29;;;;;;;;;5.00;5.00;;;;;13.08;29.89;98394.13;6286218;27;96778;-69
2023/03/15 11:44:39;;;;;;;;;7.00;7.00;;;;;12.87;30.59;98401.13;6299873;27;96552;-70
2023/03/15 11:47:50;;;;;;;;;5.00;5.00;;;;;12.88;30.79;98404.66;6302693;27;96518;-69
2023/03/15 11:50:54;;;;;;;;;5.00;5.00;;;;;12.72;30.57;98403.59;6308842;27;96688;-70
2023/03/15 11:54:07;;;;;;;;;4.00;4.00;;;;;12.71;30.74;98399.25;6304152;27;96291;-69
2023/03/15 11:57:43;;;;;;;;;6.00;6.00;;;;;12.75;30.86;98405.00;6312412;27;96457;-69
2023/03/15 12:00:55;;;;;;;;;3.00;3.00;;;;;12.93;30.11;98392.03;6294583;27;98468;-70
2023/03/15 12:04:38;;;;;;;;;4.50;4.50;;;;;13.11;30.45;98403.63;6312494;27;96239;-70
2023/03/15 12:08:15;;;;;;;;;6.00;5.00;;;;;13.27;30.20;98408.22;6308392;27;96256;-69
2023/03/15 12:11:43;;;;;;;;;5.00;5.00;;;;;13.13;29.89;98409.66;6288032;27;96698;-70
2023/03/15 12:14:47;;;;;;;;;6.00;5.00;;;;;13.35;30.34;98405.88;6288310;27;100131;-70
2023/03/15 12:17:54;;;;;;;;;3.00;3.00;;;;;13.52;29.60;98400.41;6309278;27;96770;-69
2023/03/15 12:21:14;;;;;;;;;5.60;4.60;;;;;13.76;30.09;98404.50;6301385;27;96462;-69
2023/03/15 12:24:23;;;;;;;;;4.00;4.00;;;;;13.88;29.16;98396.19;6281003;27;96662;-70
2023/03/15 12:27:28;;;;;;;;;3.60;3.00;;;;;14.00;29.10;98399.59;6303873;27;99237;-70
2023/03/15 12:30:39;;;;;;;;;6.00;5.00;;;;;14.24;28.71;98391.97;6306315;27;96457;-68
2023/03/15 12:33:49;;;;;;;;;5.00;4.00;;;;;14.36;28.47;98400.78;6302435;27;96825;-67
2023/03/15 12:36:57;;;;;;;;;4.00;4.00;;;;;14.43;28.06;98397.84;6283241;27;96722;-68
2023/03/15 12:40:22;;;;;;;;;5.00;4.60;;;;;14.27;27.80;98369.75;6309266;27;97008;-68
2023/03/15 12:43:40;;;;;;;;;4.00;3.00;;;;;14.49;28.14;98405.78;6252420;27;96173;-68
2023/03/15 12:46:57;;;;;;;;;5.00;4.00;;;;;14.51;28.02;98406.34;6163800;28;97241;-68
2023/03/15 12:50:36;;;;;;;;;4.00;3.80;;;;;14.37;28.58;98413.25;6274936;27;96809;-68
2023/03/15 12:53:51;;;;;;;;;3.80;2.60;;;;;14.39;28.28;98399.44;6206492;27;96387;-68
2023/03/15 12:56:59;;;;;;;;;4.00;4.00;;;;;14.31;27.80;98398.00;6199343;27;96999;-68
2023/03/15 13:00:10;;;;;;;;;5.40;5.00;;;;;14.34;27.76;98408.31;6200429;27;96665;-68
2023/03/15 13:03:18;;;;;;;;;2.00;2.00;;;;;14.35;28.46;98404.53;6230303;27;96904;-65
2023/03/15 13:06:35;;;;;;;;;4.75;3.50;;;;;14.25;28.41;98402.56;6145475;27;96480;-68
2023/03/15 13:10:16;;;;;;;;;5.50;4.50;;;;;14.06;27.95;98408.59;6184576;27;96820;-67
2023/03/15 13:13:33;;;;;;;;;6.50;6.00;;;;;13.78;27.75;98415.09;6169302;27;96532;-68
2023/03/15 13:16:43;;;;;;;;;4.80;4.00;;;;;13.75;28.32;98412.88;6244550;27;96977;-68
2023/03/15 13:19:56;;;;;;;;;4.20;4.20;;;;;13.75;28.34;98399.31;6222515;27;96283;-68
2023/03/15 13:23:10;;;;;;;;;6.40;5.40;;;;;13.64;28.19;98394.84;6196543;27;98712;-68
2023/03/15 13:26:24;;;;;;;;;3.60;3.60;;;;;13.66;28.85;98406.25;6166771;27;97124;-68
2023/03/15 13:29:31;;;;;;;;;2.80;2.80;;;;;13.63;29.20;98406.78;6172812;27;96266;-68
2023/03/15 13:32:34;;;;;;;;;7.50;6.00;;;;;13.63;29.34;98414.91;6147005;27;96611;-67
2023/03/15 13:35:48;;;;;;;;;4.00;4.00;;;;;13.76;29.42;98422.63;6151799;27;96443;-67
2023/03/15 13:38:53;;;;;;;;;5.00;5.00;;;;;13.79;29.12;98424.81;6170806;27;96695;-68
2023/03/15 13:41:58;;;;;;;;;4.00;3.75;;;;;13.79;29.28;98424.81;6162893;27;96658;-67
2023/03/15 13:45:13;;;;;;;;;4.00;4.00;;;;;13.93;29.08;98433.41;6254025;27;96738;-68
2023/03/15 13:48:18;;;;;;;;;4.40;4.40;;;;;13.82;29.33;98427.03;6238741;27;96514;-68
2023/03/15 13:51:26;;;;;;;;;4.00;3.00;;;;;13.89;28.61;98439.31;6202223;27;96284;-68
2023/03/15 13:54:31;;;;;;;;;4.60;4.40;;;;;13.83;27.88;98451.16;6206992;27;97424;-68
2023/03/15 13:57:36;;;;;;;;;5.00;5.00;;;;;13.61;28.78;98442.22;6204537;27;96515;-67
2023/03/15 14:00:40;;;;;;;;;4.00;4.00;;;;;13.59;28.71;98449.78;6265989;27;96255;-68
2023/03/15 14:03:52;;;;;;;;;6.00;5.00;;;;;13.48;28.82;98460.75;6200853;27;97592;-67
2023/03/15 14:07:24;;;;;;;;;4.60;4.00;;;;;13.26;29.15;98455.28;6262002;27;96920;-67
2023/03/15 14:10:31;;;;;;;;;4.40;4.00;;;;;13.25;29.17;98464.47;6201095;27;96890;-68
2023/03/15 14:13:46;;;;;;;;;3.00;3.00;;;;;13.28;29.65;98470.22;6201070;27;96839;-67
2023/03/15 14:16:49;;;;;;;;;4.00;4.00;;;;;13.24;28.98;98466.34;6200121;28;96413;-67
2023/03/15 14:20:15;;;;;;;;;2.60;2.00;;;;;13.20;29.31;98467.09;6269092;27;97009;-66
2023/03/15 14:23:24;;;;;;;;;2.40;2.00;;;;;13.22;29.15;98478.50;6264426;27;97215;-67
2023/03/15 14:26:30;;;;;;;;;4.00;4.00;;;;;13.14;29.64;98474.34;6265928;27;96669;-67
2023/03/15 14:29:36;;;;;;;;;5.00;5.00;;;;;13.20;29.48;98477.94;6271816;27;96686;-68
2023/03/15 14:32:52;;;;;;;;;2.00;1.00;;;;;13.12;29.18;98473.78;6250458;27;96564;-68
2023/03/15 14:35:59;;;;;;;;;3.00;3.00;;;;;13.11;28.98;98482.09;6244481;27;96696;-68
2023/03/15 14:39:04;;;;;;;;;3.00;3.00;;;;;13.02;28.68;98487.94;6274535;27;96426;-68
2023/03/15 14:42:10;;;;;;;;;5.75;4.75;;;;;12.78;28.32;98464.00;6207053;27;96473;-67
2023/03/15 14:45:15;;;;;;;;;4.00;3.00;;;;;12.86;28.89;98477.94;6207718;27;96868;-66
2023/03/15 14:48:26;;;;;;;;;5.00;4.60;;;;;12.88;29.22;98485.81;6270225;27;97096;-68
2023/03/15 14:51:31;;;;;;;;;5.60;4.60;;;;;12.82;29.15;98490.31;6208515;28;96897;-68